sensor_id;sensor_type;location;lat;lon;timestamp;P1;durP1;ratioP1;P2;durP2;ratioP2
3099;SDS011;1560;52.746;13.474;2022-07-29T00:02:23;6.20;;;4.30;;
3099;SDS011;1560;52.746;13.474;2022-07-29T00:04:52;4.80;;;4.20;;
3099;SDS011;1560;52.746;13.474;2022-07-29T00:09:56;5.60;;;4.27;;
3099;SDS011;1560;52.746;13.474;2022-07-29T00:12:25;6.63;;;3.37;;
3099;SDS011;1560;52.746;13.474;2022-07-29T00:14:54;7.37;;;4.37;;
3099;SDS011;1560;52.746;13.474;2022-07-29T00:17:23;6.30;;;4.13;;
3099;SDS011;1560;52.746;13.474;2022-07-29T00:22:28;8.10;;;4.53;;
3099;SDS011;1560;52.746;13.474;2022-07-29T00:24:57;7.00;;;4.50;;
3099;SDS011;1560;52.746;13.474;2022-07-29T00:30:02;7.57;;;4.50;;
3099;SDS011;1560;52.746;13.474;2022-07-29T00:32:32;6.53;;;4.50;;
3099;SDS011;1560;52.746;13.474;2022-07-29T00:35:01;11.93;;;5.70;;
3099;SDS011;1560;52.746;13.474;2022-07-29T00:37:47;8.53;;;5.20;;
3099;SDS011;1560;52.746;13.474;2022-07-29T00:40:16;6.10;;;4.60;;
3099;SDS011;1560;52.746;13.474;2022-07-29T00:45:21;8.10;;;4.23;;
3099;SDS011;1560;52.746;13.474;2022-07-29T00:47:50;7.33;;;4.23;;
3099;SDS011;1560;52.746;13.474;2022-07-29T00:50:27;7.33;;;4.67;;
3099;SDS011;1560;52.746;13.474;2022-07-29T00:52:56;7.77;;;4.70;;
3099;SDS011;1560;52.746;13.474;2022-07-29T00:55:25;6.30;;;4.13;;
3099;SDS011;1560;52.746;13.474;2022-07-29T00:57:54;8.67;;;4.77;;
3099;SDS011;1560;52.746;13.474;2022-07-29T01:00:24;11.63;;;5.10;;
3099;SDS011;1560;52.746;13.474;2022-07-29T01:05:30;9.50;;;4.63;;
3099;SDS011;1560;52.746;13.474;2022-07-29T01:07:59;6.93;;;5.00;;
3099;SDS011;1560;52.746;13.474;2022-07-29T01:13:05;6.67;;;4.17;;
3099;SDS011;1560;52.746;13.474;2022-07-29T01:15:36;6.10;;;4.13;;
3099;SDS011;1560;52.746;13.474;2022-07-29T01:20:49;9.00;;;4.73;;
3099;SDS011;1560;52.746;13.474;2022-07-29T01:23:33;9.70;;;4.53;;
3099;SDS011;1560;52.746;13.474;2022-07-29T01:29:07;6.93;;;4.57;;
3099;SDS011;1560;52.746;13.474;2022-07-29T01:31:43;7.43;;;3.97;;
3099;SDS011;1560;52.746;13.474;2022-07-29T01:36:54;7.00;;;4.33;;
3099;SDS011;1560;52.746;13.474;2022-07-29T01:39:26;4.83;;;4.00;;
3099;SDS011;1560;52.746;13.474;2022-07-29T01:41:58;6.37;;;4.53;;
3099;SDS011;1560;52.746;13.474;2022-07-29T01:44:31;8.20;;;4.00;;
3099;SDS011;1560;52.746;13.474;2022-07-29T01:47:05;6.23;;;4.50;;
3099;SDS011;1560;52.746;13.474;2022-07-29T01:52:13;5.40;;;3.67;;
3099;SDS011;1560;52.746;13.474;2022-07-29T01:54:43;7.40;;;4.30;;
3099;SDS011;1560;52.746;13.474;2022-07-29T01:57:15;9.43;;;5.13;;
3099;SDS011;1560;52.746;13.474;2022-07-29T01:59:46;4.70;;;4.13;;
3099;SDS011;1560;52.746;13.474;2022-07-29T02:02:16;6.83;;;4.83;;
3099;SDS011;1560;52.746;13.474;2022-07-29T02:04:55;6.17;;;4.23;;
3099;SDS011;1560;52.746;13.474;2022-07-29T02:07:24;4.43;;;3.53;;
3099;SDS011;1560;52.746;13.474;2022-07-29T02:09:56;7.77;;;5.00;;
3099;SDS011;1560;52.746;13.474;2022-07-29T02:12:26;4.83;;;3.57;;
3099;SDS011;1560;52.746;13.474;2022-07-29T02:14:56;5.57;;;4.20;;
3099;SDS011;1560;52.746;13.474;2022-07-29T02:17:39;6.00;;;4.10;;
3099;SDS011;1560;52.746;13.474;2022-07-29T02:20:09;4.60;;;4.07;;
3099;SDS011;1560;52.746;13.474;2022-07-29T02:22:39;7.40;;;4.57;;
3099;SDS011;1560;52.746;13.474;2022-07-29T02:27:45;6.40;;;3.40;;
3099;SDS011;1560;52.746;13.474;2022-07-29T02:32:50;3.70;;;3.30;;
3099;SDS011;1560;52.746;13.474;2022-07-29T02:35:20;6.00;;;3.67;;
3099;SDS011;1560;52.746;13.474;2022-07-29T02:40:26;5.03;;;3.77;;
3099;SDS011;1560;52.746;13.474;2022-07-29T02:42:55;5.47;;;3.60;;
3099;SDS011;1560;52.746;13.474;2022-07-29T02:45:23;7.03;;;3.70;;
3099;SDS011;1560;52.746;13.474;2022-07-29T02:47:52;6.30;;;4.50;;
3099;SDS011;1560;52.746;13.474;2022-07-29T02:50:31;6.93;;;5.27;;
3099;SDS011;1560;52.746;13.474;2022-07-29T02:53:05;11.87;;;4.73;;
3099;SDS011;1560;52.746;13.474;2022-07-29T02:58:13;6.97;;;4.80;;
3099;SDS011;1560;52.746;13.474;2022-07-29T03:00:42;5.40;;;3.83;;
3099;SDS011;1560;52.746;13.474;2022-07-29T03:03:15;6.37;;;3.50;;
3099;SDS011;1560;52.746;13.474;2022-07-29T03:05:52;10.60;;;4.10;;
3099;SDS011;1560;52.746;13.474;2022-07-29T03:08:23;7.77;;;5.03;;
3099;SDS011;1560;52.746;13.474;2022-07-29T03:10:53;6.00;;;3.80;;
3099;SDS011;1560;52.746;13.474;2022-07-29T03:13:22;5.43;;;3.77;;
3099;SDS011;1560;52.746;13.474;2022-07-29T03:15:52;7.13;;;4.60;;
3099;SDS011;1560;52.746;13.474;2022-07-29T03:18:22;9.40;;;4.27;;
3099;SDS011;1560;52.746;13.474;2022-07-29T03:23:27;7.33;;;4.00;;
3099;SDS011;1560;52.746;13.474;2022-07-29T03:25:56;5.63;;;4.17;;
3099;SDS011;1560;52.746;13.474;2022-07-29T03:28:25;5.20;;;3.97;;
3099;SDS011;1560;52.746;13.474;2022-07-29T03:33:30;7.27;;;4.80;;
3099;SDS011;1560;52.746;13.474;2022-07-29T03:35:59;7.73;;;3.90;;
3099;SDS011;1560;52.746;13.474;2022-07-29T03:38:29;8.33;;;5.13;;
3099;SDS011;1560;52.746;13.474;2022-07-29T03:41:09;7.70;;;4.70;;
3099;SDS011;1560;52.746;13.474;2022-07-29T03:43:39;8.57;;;5.17;;
3099;SDS011;1560;52.746;13.474;2022-07-29T03:46:09;11.27;;;5.50;;
3099;SDS011;1560;52.746;13.474;2022-07-29T03:51:15;7.57;;;4.80;;
3099;SDS011;1560;52.746;13.474;2022-07-29T03:53:44;8.83;;;4.70;;
3099;SDS011;1560;52.746;13.474;2022-07-29T03:56:12;6.73;;;4.20;;
3099;SDS011;1560;52.746;13.474;2022-07-29T03:58:44;6.30;;;4.77;;
3099;SDS011;1560;52.746;13.474;2022-07-29T04:01:13;5.10;;;4.33;;
3099;SDS011;1560;52.746;13.474;2022-07-29T04:06:19;6.37;;;4.93;;
3099;SDS011;1560;52.746;13.474;2022-07-29T04:08:48;9.47;;;4.80;;
3099;SDS011;1560;52.746;13.474;2022-07-29T04:11:17;7.53;;;4.60;;
3099;SDS011;1560;52.746;13.474;2022-07-29T04:13:45;8.13;;;4.53;;
3099;SDS011;1560;52.746;13.474;2022-07-29T04:16:14;10.10;;;5.07;;
3099;SDS011;1560;52.746;13.474;2022-07-29T04:18:51;6.13;;;4.80;;
3099;SDS011;1560;52.746;13.474;2022-07-29T04:21:20;9.00;;;4.97;;
3099;SDS011;1560;52.746;13.474;2022-07-29T04:23:49;6.97;;;4.93;;
3099;SDS011;1560;52.746;13.474;2022-07-29T04:26:18;8.40;;;5.10;;
3099;SDS011;1560;52.746;13.474;2022-07-29T04:31:23;7.03;;;4.50;;
3099;SDS011;1560;52.746;13.474;2022-07-29T04:33:52;7.00;;;4.57;;
3099;SDS011;1560;52.746;13.474;2022-07-29T04:36:20;6.83;;;4.67;;
3099;SDS011;1560;52.746;13.474;2022-07-29T04:38:49;10.80;;;4.03;;
3099;SDS011;1560;52.746;13.474;2022-07-29T04:41:18;6.70;;;4.83;;
3099;SDS011;1560;52.746;13.474;2022-07-29T04:43:46;6.60;;;4.63;;
3099;SDS011;1560;52.746;13.474;2022-07-29T04:48:51;8.23;;;4.77;;
3099;SDS011;1560;52.746;13.474;2022-07-29T04:53:56;11.30;;;5.13;;
3099;SDS011;1560;52.746;13.474;2022-07-29T04:56:25;7.67;;;4.57;;
3099;SDS011;1560;52.746;13.474;2022-07-29T04:58:53;4.67;;;4.10;;
3099;SDS011;1560;52.746;13.474;2022-07-29T05:01:22;7.67;;;4.87;;
3099;SDS011;1560;52.746;13.474;2022-07-29T05:06:27;5.97;;;3.80;;
3099;SDS011;1560;52.746;13.474;2022-07-29T05:08:55;8.03;;;4.53;;
3099;SDS011;1560;52.746;13.474;2022-07-29T05:14:00;5.03;;;4.17;;
3099;SDS011;1560;52.746;13.474;2022-07-29T05:16:29;5.90;;;4.43;;
3099;SDS011;1560;52.746;13.474;2022-07-29T05:21:34;7.90;;;5.20;;
3099;SDS011;1560;52.746;13.474;2022-07-29T05:24:04;8.60;;;4.00;;
3099;SDS011;1560;52.746;13.474;2022-07-29T05:26:33;6.40;;;4.80;;
3099;SDS011;1560;52.746;13.474;2022-07-29T05:31:37;7.20;;;4.80;;
3099;SDS011;1560;52.746;13.474;2022-07-29T05:34:06;5.70;;;4.40;;
3099;SDS011;1560;52.746;13.474;2022-07-29T05:36:34;7.40;;;4.77;;
3099;SDS011;1560;52.746;13.474;2022-07-29T05:39:03;7.37;;;4.70;;
3099;SDS011;1560;52.746;13.474;2022-07-29T05:44:08;5.10;;;4.60;;
3099;SDS011;1560;52.746;13.474;2022-07-29T05:46:37;5.60;;;4.97;;
3099;SDS011;1560;52.746;13.474;2022-07-29T05:51:45;8.67;;;4.67;;
3099;SDS011;1560;52.746;13.474;2022-07-29T05:54:15;7.83;;;4.10;;
3099;SDS011;1560;52.746;13.474;2022-07-29T05:56:43;8.30;;;4.30;;
3099;SDS011;1560;52.746;13.474;2022-07-29T06:01:48;5.63;;;4.03;;
3099;SDS011;1560;52.746;13.474;2022-07-29T06:04:17;6.00;;;4.23;;
3099;SDS011;1560;52.746;13.474;2022-07-29T06:06:45;5.07;;;3.50;;
3099;SDS011;1560;52.746;13.474;2022-07-29T06:09:22;4.37;;;3.90;;
3099;SDS011;1560;52.746;13.474;2022-07-29T06:11:52;7.30;;;4.23;;
3099;SDS011;1560;52.746;13.474;2022-07-29T06:16:56;6.60;;;4.40;;
3099;SDS011;1560;52.746;13.474;2022-07-29T06:19:25;6.80;;;5.37;;
3099;SDS011;1560;52.746;13.474;2022-07-29T06:21:54;8.57;;;4.90;;
3099;SDS011;1560;52.746;13.474;2022-07-29T06:24:22;5.20;;;3.67;;
3099;SDS011;1560;52.746;13.474;2022-07-29T06:29:27;6.90;;;4.50;;
3099;SDS011;1560;52.746;13.474;2022-07-29T06:31:55;4.87;;;4.23;;
3099;SDS011;1560;52.746;13.474;2022-07-29T06:34:24;8.23;;;4.37;;
3099;SDS011;1560;52.746;13.474;2022-07-29T06:36:53;5.60;;;4.20;;
3099;SDS011;1560;52.746;13.474;2022-07-29T06:39:22;6.77;;;4.20;;
3099;SDS011;1560;52.746;13.474;2022-07-29T06:41:50;9.57;;;5.00;;
3099;SDS011;1560;52.746;13.474;2022-07-29T06:44:20;6.40;;;4.07;;
3099;SDS011;1560;52.746;13.474;2022-07-29T06:46:48;4.87;;;3.70;;
3099;SDS011;1560;52.746;13.474;2022-07-29T06:51:54;6.73;;;4.30;;
3099;SDS011;1560;52.746;13.474;2022-07-29T06:54:22;5.03;;;4.27;;
3099;SDS011;1560;52.746;13.474;2022-07-29T06:56:51;9.50;;;4.47;;
3099;SDS011;1560;52.746;13.474;2022-07-29T07:01:56;5.57;;;3.90;;
3099;SDS011;1560;52.746;13.474;2022-07-29T07:04:24;8.43;;;4.40;;
3099;SDS011;1560;52.746;13.474;2022-07-29T07:06:53;10.60;;;4.10;;
3099;SDS011;1560;52.746;13.474;2022-07-29T07:09:22;5.37;;;4.70;;
3099;SDS011;1560;52.746;13.474;2022-07-29T07:11:50;7.10;;;5.10;;
3099;SDS011;1560;52.746;13.474;2022-07-29T07:14:19;6.97;;;4.33;;
3099;SDS011;1560;52.746;13.474;2022-07-29T07:16:48;9.90;;;4.97;;
3099;SDS011;1560;52.746;13.474;2022-07-29T07:21:52;11.63;;;4.70;;
3099;SDS011;1560;52.746;13.474;2022-07-29T07:24:21;6.50;;;4.20;;
3099;SDS011;1560;52.746;13.474;2022-07-29T07:26:50;7.80;;;4.00;;
3099;SDS011;1560;52.746;13.474;2022-07-29T07:29:27;8.90;;;4.40;;
3099;SDS011;1560;52.746;13.474;2022-07-29T07:31:56;6.27;;;5.67;;
3099;SDS011;1560;52.746;13.474;2022-07-29T07:34:25;5.50;;;4.60;;
3099;SDS011;1560;52.746;13.474;2022-07-29T07:39:30;4.23;;;3.60;;
3099;SDS011;1560;52.746;13.474;2022-07-29T07:41:58;9.70;;;5.23;;
3099;SDS011;1560;52.746;13.474;2022-07-29T07:44:27;4.00;;;3.60;;
3099;SDS011;1560;52.746;13.474;2022-07-29T07:46:56;8.10;;;3.60;;
3099;SDS011;1560;52.746;13.474;2022-07-29T07:49:25;9.17;;;4.03;;
3099;SDS011;1560;52.746;13.474;2022-07-29T07:51:53;7.70;;;3.70;;
3099;SDS011;1560;52.746;13.474;2022-07-29T07:54:22;6.13;;;3.70;;
3099;SDS011;1560;52.746;13.474;2022-07-29T07:56:51;6.77;;;4.20;;
3099;SDS011;1560;52.746;13.474;2022-07-29T07:59:19;5.10;;;3.90;;
3099;SDS011;1560;52.746;13.474;2022-07-29T08:01:48;8.33;;;3.97;;
3099;SDS011;1560;52.746;13.474;2022-07-29T08:06:53;4.60;;;3.67;;
3099;SDS011;1560;52.746;13.474;2022-07-29T08:09:22;8.10;;;4.33;;
3099;SDS011;1560;52.746;13.474;2022-07-29T08:11:51;6.30;;;3.77;;
3099;SDS011;1560;52.746;13.474;2022-07-29T08:14:29;5.27;;;3.80;;
3099;SDS011;1560;52.746;13.474;2022-07-29T08:17:06;4.10;;;3.40;;
3099;SDS011;1560;52.746;13.474;2022-07-29T08:19:34;6.23;;;3.47;;
3099;SDS011;1560;52.746;13.474;2022-07-29T08:22:03;6.17;;;3.47;;
3099;SDS011;1560;52.746;13.474;2022-07-29T08:27:08;7.00;;;4.00;;
3099;SDS011;1560;52.746;13.474;2022-07-29T08:29:37;5.70;;;3.70;;
3099;SDS011;1560;52.746;13.474;2022-07-29T08:32:06;5.90;;;4.00;;
3099;SDS011;1560;52.746;13.474;2022-07-29T08:34:34;4.40;;;3.80;;
3099;SDS011;1560;52.746;13.474;2022-07-29T08:37:03;3.43;;;2.93;;
3099;SDS011;1560;52.746;13.474;2022-07-29T08:39:32;11.83;;;4.83;;
3099;SDS011;1560;52.746;13.474;2022-07-29T08:42:00;5.23;;;3.47;;
3099;SDS011;1560;52.746;13.474;2022-07-29T08:44:29;5.03;;;3.40;;
3099;SDS011;1560;52.746;13.474;2022-07-29T08:47:06;3.70;;;3.30;;
3099;SDS011;1560;52.746;13.474;2022-07-29T08:49:35;5.10;;;3.43;;
3099;SDS011;1560;52.746;13.474;2022-07-29T08:52:04;6.50;;;3.77;;
3099;SDS011;1560;52.746;13.474;2022-07-29T08:57:09;6.20;;;3.60;;
3099;SDS011;1560;52.746;13.474;2022-07-29T08:59:49;3.50;;;3.20;;
3099;SDS011;1560;52.746;13.474;2022-07-29T09:02:20;5.90;;;3.20;;
3099;SDS011;1560;52.746;13.474;2022-07-29T09:04:49;4.80;;;3.17;;
3099;SDS011;1560;52.746;13.474;2022-07-29T09:09:54;6.07;;;3.50;;
3099;SDS011;1560;52.746;13.474;2022-07-29T09:12:23;3.97;;;3.00;;
3099;SDS011;1560;52.746;13.474;2022-07-29T09:15:00;3.47;;;3.17;;
3099;SDS011;1560;52.746;13.474;2022-07-29T09:17:39;4.67;;;3.13;;
3099;SDS011;1560;52.746;13.474;2022-07-29T09:20:10;7.20;;;2.93;;
3099;SDS011;1560;52.746;13.474;2022-07-29T09:22:40;5.87;;;3.20;;
3099;SDS011;1560;52.746;13.474;2022-07-29T09:27:45;4.17;;;2.60;;
3099;SDS011;1560;52.746;13.474;2022-07-29T09:30:17;5.27;;;2.87;;
3099;SDS011;1560;52.746;13.474;2022-07-29T09:32:57;4.40;;;2.83;;
3099;SDS011;1560;52.746;13.474;2022-07-29T09:35:28;5.07;;;2.90;;
3099;SDS011;1560;52.746;13.474;2022-07-29T09:37:57;4.10;;;2.70;;
3099;SDS011;1560;52.746;13.474;2022-07-29T09:40:27;4.60;;;2.40;;
3099;SDS011;1560;52.746;13.474;2022-07-29T09:42:56;5.60;;;2.87;;
3099;SDS011;1560;52.746;13.474;2022-07-29T09:48:14;8.00;;;2.70;;
3099;SDS011;1560;52.746;13.474;2022-07-29T09:50:44;7.93;;;2.47;;
3099;SDS011;1560;52.746;13.474;2022-07-29T09:53:28;6.90;;;3.03;;
3099;SDS011;1560;52.746;13.474;2022-07-29T09:56:06;6.60;;;2.80;;
3099;SDS011;1560;52.746;13.474;2022-07-29T09:58:36;4.30;;;2.50;;
3099;SDS011;1560;52.746;13.474;2022-07-29T10:01:05;7.50;;;3.13;;
3099;SDS011;1560;52.746;13.474;2022-07-29T10:03:38;3.73;;;2.60;;
3099;SDS011;1560;52.746;13.474;2022-07-29T10:06:26;4.87;;;2.47;;
3099;SDS011;1560;52.746;13.474;2022-07-29T10:09:01;6.50;;;2.60;;
3099;SDS011;1560;52.746;13.474;2022-07-29T10:14:11;4.33;;;3.03;;
3099;SDS011;1560;52.746;13.474;2022-07-29T10:16:41;4.50;;;3.03;;
3099;SDS011;1560;52.746;13.474;2022-07-29T10:21:45;3.03;;;2.10;;
3099;SDS011;1560;52.746;13.474;2022-07-29T10:24:15;2.60;;;1.87;;
3099;SDS011;1560;52.746;13.474;2022-07-29T10:26:44;7.40;;;2.47;;
3099;SDS011;1560;52.746;13.474;2022-07-29T10:31:52;3.67;;;2.80;;
3099;SDS011;1560;52.746;13.474;2022-07-29T10:34:26;5.60;;;2.33;;
3099;SDS011;1560;52.746;13.474;2022-07-29T10:39:36;4.40;;;2.40;;
3099;SDS011;1560;52.746;13.474;2022-07-29T10:42:11;6.00;;;2.40;;
3099;SDS011;1560;52.746;13.474;2022-07-29T10:44:43;2.90;;;2.03;;
3099;SDS011;1560;52.746;13.474;2022-07-29T10:49:59;4.60;;;2.37;;
3099;SDS011;1560;52.746;13.474;2022-07-29T10:58:11;4.13;;;2.47;;
3099;SDS011;1560;52.746;13.474;2022-07-29T11:00:41;7.43;;;2.63;;
3099;SDS011;1560;52.746;13.474;2022-07-29T11:05:52;4.00;;;2.30;;
3099;SDS011;1560;52.746;13.474;2022-07-29T11:08:23;4.23;;;2.13;;
3099;SDS011;1560;52.746;13.474;2022-07-29T11:10:53;6.23;;;2.50;;
3099;SDS011;1560;52.746;13.474;2022-07-29T11:13:47;2.83;;;2.30;;
3099;SDS011;1560;52.746;13.474;2022-07-29T11:16:17;3.90;;;2.27;;
3099;SDS011;1560;52.746;13.474;2022-07-29T11:21:49;3.37;;;2.57;;
3099;SDS011;1560;52.746;13.474;2022-07-29T11:29:51;4.87;;;2.37;;
3099;SDS011;1560;52.746;13.474;2022-07-29T11:32:22;2.70;;;1.80;;
3099;SDS011;1560;52.746;13.474;2022-07-29T11:35:12;4.83;;;2.70;;
3099;SDS011;1560;52.746;13.474;2022-07-29T11:37:43;4.43;;;2.37;;
3099;SDS011;1560;52.746;13.474;2022-07-29T11:40:14;2.97;;;2.03;;
3099;SDS011;1560;52.746;13.474;2022-07-29T11:42:44;6.40;;;2.50;;
3099;SDS011;1560;52.746;13.474;2022-07-29T11:47:54;4.00;;;2.70;;
3099;SDS011;1560;52.746;13.474;2022-07-29T11:53:10;4.80;;;2.53;;
3099;SDS011;1560;52.746;13.474;2022-07-29T11:55:40;4.00;;;2.50;;
3099;SDS011;1560;52.746;13.474;2022-07-29T11:58:09;3.23;;;2.43;;
3099;SDS011;1560;52.746;13.474;2022-07-29T12:00:39;4.00;;;2.83;;
3099;SDS011;1560;52.746;13.474;2022-07-29T12:03:24;3.80;;;2.67;;
3099;SDS011;1560;52.746;13.474;2022-07-29T12:05:51;3.27;;;2.27;;
3099;SDS011;1560;52.746;13.474;2022-07-29T12:10:57;3.67;;;2.70;;
3099;SDS011;1560;52.746;13.474;2022-07-29T12:13:26;4.27;;;2.90;;
3099;SDS011;1560;52.746;13.474;2022-07-29T12:16:04;3.83;;;2.50;;
3099;SDS011;1560;52.746;13.474;2022-07-29T12:18:33;4.67;;;2.77;;
3099;SDS011;1560;52.746;13.474;2022-07-29T12:21:02;8.13;;;3.43;;
3099;SDS011;1560;52.746;13.474;2022-07-29T12:23:30;5.97;;;3.10;;
3099;SDS011;1560;52.746;13.474;2022-07-29T12:26:08;5.40;;;3.77;;
3099;SDS011;1560;52.746;13.474;2022-07-29T12:28:37;4.60;;;3.20;;
3099;SDS011;1560;52.746;13.474;2022-07-29T12:33:42;3.70;;;3.40;;
3099;SDS011;1560;52.746;13.474;2022-07-29T12:36:13;6.77;;;3.53;;
3099;SDS011;1560;52.746;13.474;2022-07-29T12:38:42;7.90;;;3.50;;
3099;SDS011;1560;52.746;13.474;2022-07-29T12:43:53;4.97;;;3.30;;
3099;SDS011;1560;52.746;13.474;2022-07-29T12:46:22;4.43;;;3.20;;
3099;SDS011;1560;52.746;13.474;2022-07-29T12:48:51;4.40;;;3.10;;
3099;SDS011;1560;52.746;13.474;2022-07-29T12:51:29;4.43;;;3.03;;
3099;SDS011;1560;52.746;13.474;2022-07-29T12:54:03;6.60;;;3.80;;
3099;SDS011;1560;52.746;13.474;2022-07-29T12:56:44;3.90;;;3.33;;
3099;SDS011;1560;52.746;13.474;2022-07-29T13:01:49;5.93;;;3.27;;
3099;SDS011;1560;52.746;13.474;2022-07-29T13:04:25;3.57;;;3.13;;
3099;SDS011;1560;52.746;13.474;2022-07-29T13:07:01;3.50;;;3.03;;
3099;SDS011;1560;52.746;13.474;2022-07-29T13:09:38;6.00;;;3.93;;
3099;SDS011;1560;52.746;13.474;2022-07-29T13:12:09;5.80;;;4.47;;
3099;SDS011;1560;52.746;13.474;2022-07-29T13:14:39;5.60;;;4.00;;
3099;SDS011;1560;52.746;13.474;2022-07-29T13:17:10;4.40;;;3.60;;
3099;SDS011;1560;52.746;13.474;2022-07-29T13:22:18;5.33;;;3.50;;
3099;SDS011;1560;52.746;13.474;2022-07-29T13:24:49;4.97;;;3.47;;
3099;SDS011;1560;52.746;13.474;2022-07-29T13:27:18;5.13;;;3.80;;
3099;SDS011;1560;52.746;13.474;2022-07-29T13:29:48;4.43;;;4.03;;
3099;SDS011;1560;52.746;13.474;2022-07-29T13:34:54;4.70;;;3.90;;
3099;SDS011;1560;52.746;13.474;2022-07-29T13:40:00;4.10;;;3.50;;
3099;SDS011;1560;52.746;13.474;2022-07-29T13:42:30;4.97;;;4.00;;
3099;SDS011;1560;52.746;13.474;2022-07-29T13:44:59;4.73;;;4.23;;
3099;SDS011;1560;52.746;13.474;2022-07-29T13:47:29;8.13;;;4.53;;
3099;SDS011;1560;52.746;13.474;2022-07-29T13:49:58;4.83;;;3.80;;
3099;SDS011;1560;52.746;13.474;2022-07-29T13:55:04;6.53;;;4.27;;
3099;SDS011;1560;52.746;13.474;2022-07-29T14:00:12;7.27;;;4.70;;
3099;SDS011;1560;52.746;13.474;2022-07-29T14:02:42;7.17;;;4.23;;
3099;SDS011;1560;52.746;13.474;2022-07-29T14:05:11;11.57;;;4.50;;
3099;SDS011;1560;52.746;13.474;2022-07-29T14:07:48;5.70;;;3.87;;
3099;SDS011;1560;52.746;13.474;2022-07-29T14:10:26;5.43;;;4.10;;
3099;SDS011;1560;52.746;13.474;2022-07-29T14:12:55;4.83;;;3.87;;
3099;SDS011;1560;52.746;13.474;2022-07-29T14:15:32;4.77;;;4.20;;
3099;SDS011;1560;52.746;13.474;2022-07-29T14:18:01;4.23;;;3.83;;
3099;SDS011;1560;52.746;13.474;2022-07-29T14:20:30;4.60;;;4.13;;
3099;SDS011;1560;52.746;13.474;2022-07-29T14:22:59;5.80;;;4.30;;
3099;SDS011;1560;52.746;13.474;2022-07-29T14:28:04;6.50;;;4.40;;
3099;SDS011;1560;52.746;13.474;2022-07-29T14:30:33;4.40;;;3.80;;
3099;SDS011;1560;52.746;13.474;2022-07-29T14:33:10;5.87;;;4.17;;
3099;SDS011;1560;52.746;13.474;2022-07-29T14:35:39;7.00;;;4.40;;
3099;SDS011;1560;52.746;13.474;2022-07-29T14:38:16;11.33;;;4.60;;
3099;SDS011;1560;52.746;13.474;2022-07-29T14:43:21;5.40;;;4.23;;
3099;SDS011;1560;52.746;13.474;2022-07-29T14:45:50;6.10;;;4.10;;
3099;SDS011;1560;52.746;13.474;2022-07-29T14:48:18;7.47;;;4.77;;
3099;SDS011;1560;52.746;13.474;2022-07-29T14:50:56;5.77;;;4.37;;
3099;SDS011;1560;52.746;13.474;2022-07-29T14:53:25;4.80;;;3.90;;
3099;SDS011;1560;52.746;13.474;2022-07-29T14:55:54;4.60;;;3.30;;
3099;SDS011;1560;52.746;13.474;2022-07-29T14:58:22;4.87;;;4.03;;
3099;SDS011;1560;52.746;13.474;2022-07-29T15:03:27;4.87;;;4.37;;
3099;SDS011;1560;52.746;13.474;2022-07-29T15:05:55;8.00;;;4.27;;
3099;SDS011;1560;52.746;13.474;2022-07-29T15:08:24;4.37;;;3.97;;
3099;SDS011;1560;52.746;13.474;2022-07-29T15:10:54;4.23;;;3.83;;
3099;SDS011;1560;52.746;13.474;2022-07-29T15:13:25;5.30;;;4.00;;
3099;SDS011;1560;52.746;13.474;2022-07-29T15:15:54;11.97;;;4.27;;
3099;SDS011;1560;52.746;13.474;2022-07-29T15:20:58;8.27;;;4.03;;
3099;SDS011;1560;52.746;13.474;2022-07-29T15:23:28;6.47;;;4.20;;
3099;SDS011;1560;52.746;13.474;2022-07-29T15:25:56;4.53;;;3.30;;
3099;SDS011;1560;52.746;13.474;2022-07-29T15:31:01;4.60;;;3.63;;
3099;SDS011;1560;52.746;13.474;2022-07-29T15:33:30;9.40;;;5.20;;
3099;SDS011;1560;52.746;13.474;2022-07-29T15:35:59;4.33;;;3.60;;
3099;SDS011;1560;52.746;13.474;2022-07-29T15:38:27;4.63;;;4.13;;
3099;SDS011;1560;52.746;13.474;2022-07-29T15:43:32;5.70;;;4.10;;
3099;SDS011;1560;52.746;13.474;2022-07-29T15:46:01;9.60;;;4.70;;
3099;SDS011;1560;52.746;13.474;2022-07-29T15:51:24;6.93;;;3.90;;
3099;SDS011;1560;52.746;13.474;2022-07-29T15:53:53;4.87;;;3.23;;
3099;SDS011;1560;52.746;13.474;2022-07-29T15:56:21;3.30;;;3.00;;
3099;SDS011;1560;52.746;13.474;2022-07-29T15:58:50;6.37;;;3.37;;
3099;SDS011;1560;52.746;13.474;2022-07-29T16:01:19;7.67;;;4.20;;
3099;SDS011;1560;52.746;13.474;2022-07-29T16:06:23;8.47;;;3.77;;
3099;SDS011;1560;52.746;13.474;2022-07-29T16:08:52;6.83;;;3.77;;
3099;SDS011;1560;52.746;13.474;2022-07-29T16:13:58;4.10;;;3.50;;
3099;SDS011;1560;52.746;13.474;2022-07-29T16:16:26;3.80;;;3.50;;
3099;SDS011;1560;52.746;13.474;2022-07-29T16:21:32;6.33;;;3.50;;
3099;SDS011;1560;52.746;13.474;2022-07-29T16:24:01;5.47;;;3.90;;
3099;SDS011;1560;52.746;13.474;2022-07-29T16:26:30;3.83;;;3.50;;
3099;SDS011;1560;52.746;13.474;2022-07-29T16:28:59;8.50;;;4.40;;
3099;SDS011;1560;52.746;13.474;2022-07-29T16:34:05;4.40;;;3.60;;
3099;SDS011;1560;52.746;13.474;2022-07-29T16:36:34;3.90;;;3.37;;
3099;SDS011;1560;52.746;13.474;2022-07-29T16:39:03;6.40;;;4.00;;
3099;SDS011;1560;52.746;13.474;2022-07-29T16:44:08;4.07;;;3.60;;
3099;SDS011;1560;52.746;13.474;2022-07-29T16:46:36;9.93;;;3.57;;
3099;SDS011;1560;52.746;13.474;2022-07-29T16:51:41;6.73;;;3.70;;
3099;SDS011;1560;52.746;13.474;2022-07-29T16:54:10;4.13;;;3.73;;
3099;SDS011;1560;52.746;13.474;2022-07-29T16:56:38;5.27;;;3.60;;
3099;SDS011;1560;52.746;13.474;2022-07-29T16:59:07;4.50;;;3.30;;
3099;SDS011;1560;52.746;13.474;2022-07-29T17:01:35;3.47;;;2.90;;
3099;SDS011;1560;52.746;13.474;2022-07-29T17:04:04;7.27;;;3.40;;
3099;SDS011;1560;52.746;13.474;2022-07-29T17:06:33;6.30;;;4.00;;
3099;SDS011;1560;52.746;13.474;2022-07-29T17:09:03;6.70;;;3.60;;
3099;SDS011;1560;52.746;13.474;2022-07-29T17:11:33;3.83;;;3.30;;
3099;SDS011;1560;52.746;13.474;2022-07-29T17:14:11;4.17;;;3.60;;
3099;SDS011;1560;52.746;13.474;2022-07-29T17:16:39;5.13;;;4.03;;
3099;SDS011;1560;52.746;13.474;2022-07-29T17:21:45;4.43;;;3.43;;
3099;SDS011;1560;52.746;13.474;2022-07-29T17:24:14;6.30;;;3.10;;
3099;SDS011;1560;52.746;13.474;2022-07-29T17:26:42;8.07;;;3.53;;
3099;SDS011;1560;52.746;13.474;2022-07-29T17:29:12;5.70;;;3.60;;
3099;SDS011;1560;52.746;13.474;2022-07-29T17:31:41;6.13;;;3.20;;
3099;SDS011;1560;52.746;13.474;2022-07-29T17:36:46;3.80;;;3.07;;
3099;SDS011;1560;52.746;13.474;2022-07-29T17:39:14;4.30;;;3.07;;
3099;SDS011;1560;52.746;13.474;2022-07-29T17:41:43;4.10;;;3.20;;
3099;SDS011;1560;52.746;13.474;2022-07-29T17:46:48;4.67;;;3.50;;
3099;SDS011;1560;52.746;13.474;2022-07-29T17:51:53;6.70;;;4.00;;
3099;SDS011;1560;52.746;13.474;2022-07-29T17:54:21;5.23;;;3.20;;
3099;SDS011;1560;52.746;13.474;2022-07-29T17:56:50;6.87;;;3.77;;
3099;SDS011;1560;52.746;13.474;2022-07-29T17:59:19;3.43;;;2.80;;
3099;SDS011;1560;52.746;13.474;2022-07-29T18:04:23;6.83;;;3.23;;
3099;SDS011;1560;52.746;13.474;2022-07-29T18:06:53;4.00;;;2.93;;
3099;SDS011;1560;52.746;13.474;2022-07-29T18:09:22;3.73;;;3.20;;
3099;SDS011;1560;52.746;13.474;2022-07-29T18:14:27;5.83;;;3.90;;
3099;SDS011;1560;52.746;13.474;2022-07-29T18:16:55;5.13;;;3.70;;
3099;SDS011;1560;52.746;13.474;2022-07-29T18:22:00;5.50;;;3.10;;
3099;SDS011;1560;52.746;13.474;2022-07-29T18:24:28;5.87;;;3.23;;
3099;SDS011;1560;52.746;13.474;2022-07-29T18:26:57;4.00;;;3.20;;
3099;SDS011;1560;52.746;13.474;2022-07-29T18:29:25;5.70;;;3.30;;
3099;SDS011;1560;52.746;13.474;2022-07-29T18:32:03;4.50;;;2.40;;
3099;SDS011;1560;52.746;13.474;2022-07-29T18:34:33;5.43;;;3.27;;
3099;SDS011;1560;52.746;13.474;2022-07-29T18:37:01;4.80;;;3.10;;
3099;SDS011;1560;52.746;13.474;2022-07-29T18:39:30;4.23;;;3.00;;
3099;SDS011;1560;52.746;13.474;2022-07-29T18:41:59;4.93;;;3.40;;
3099;SDS011;1560;52.746;13.474;2022-07-29T18:47:03;3.70;;;3.07;;
3099;SDS011;1560;52.746;13.474;2022-07-29T18:52:08;4.00;;;3.40;;
3099;SDS011;1560;52.746;13.474;2022-07-29T18:54:37;4.60;;;3.33;;
3099;SDS011;1560;52.746;13.474;2022-07-29T18:57:06;6.83;;;3.20;;
3099;SDS011;1560;52.746;13.474;2022-07-29T19:02:10;4.63;;;3.27;;
3099;SDS011;1560;52.746;13.474;2022-07-29T19:04:40;4.40;;;3.37;;